createdAt,value
2019-04-27T00:01:05.073Z,49.70
2019-04-27T00:05:53.990Z,49.20
2019-04-27T00:10:44.858Z,49.50
2019-04-27T00:15:37.065Z,50.60
2019-04-27T00:20:27.599Z,50.70
2019-04-27T00:25:18.990Z,49.60
2019-04-27T00:30:11.252Z,49.30
2019-04-27T00:35:03.990Z,49.60
2019-04-27T00:39:55.392Z,49.80
2019-04-27T00:44:46.753Z,49.90
2019-04-27T00:49:38.247Z,51.00
2019-04-27T00:54:29.564Z,50.70
2019-04-27T00:59:21.046Z,50.40
2019-04-27T01:04:14.093Z,51.90
2019-04-27T01:09:05.990Z,50.50
2019-04-27T01:13:57.397Z,50.70
2019-04-27T01:18:49.391Z,51.00
2019-04-27T01:23:40.167Z,51.80
2019-04-27T01:28:32.419Z,53.00
2019-04-27T01:33:25.309Z,53.00
2019-04-27T01:38:16.754Z,53.30
2019-04-27T01:43:10.336Z,53.90
2019-04-27T01:48:02.735Z,54.30
2019-04-27T01:52:53.121Z,53.30
2019-04-27T01:57:48.311Z,54.40
2019-04-27T02:02:39.781Z,55.10
2019-04-27T02:07:30.553Z,55.00
2019-04-27T02:12:20.981Z,55.60
2019-04-27T02:17:12.432Z,53.90
2019-04-27T02:22:03.736Z,54.30
2019-04-27T02:26:58.698Z,56.60
2019-04-27T02:31:50.577Z,56.40
2019-04-27T02:36:42.430Z,55.30
2019-04-27T02:41:33.844Z,54.80
2019-04-27T02:46:32.014Z,54.00
2019-04-27T02:51:25.802Z,54.20
2019-04-27T02:56:17.060Z,56.70
2019-04-27T03:01:10.501Z,57.50
2019-04-27T03:06:00.318Z,56.20
2019-04-27T03:10:51.362Z,58.10
2019-04-27T03:15:42.618Z,57.90
2019-04-27T03:20:34.034Z,56.70
2019-04-27T03:25:25.501Z,57.70
2019-04-27T03:30:16.873Z,58.50
2019-04-27T03:35:14.161Z,59.60
2019-04-27T03:40:04.052Z,59.50
2019-04-27T03:44:55.491Z,59.20
2019-04-27T03:49:46.963Z,58.80
2019-04-27T03:54:40.588Z,58.20
2019-04-27T04:04:25.699Z,58.30
2019-04-27T04:09:17.047Z,59.20
2019-04-27T04:14:10.537Z,59.40
2019-04-27T04:19:01.573Z,58.40
2019-04-27T04:23:53.339Z,58.80
2019-04-27T04:28:44.852Z,59.10
2019-04-27T04:33:40.148Z,57.20
2019-04-27T04:38:31.098Z,55.90
2019-04-27T04:43:21.296Z,55.00
2019-04-27T04:48:12.732Z,52.80
2019-04-27T04:53:03.948Z,51.80
2019-04-27T04:57:55.381Z,49.20
2019-04-27T05:02:46.791Z,47.70
2019-04-27T05:07:40.343Z,47.60
2019-04-27T05:12:31.808Z,46.50
2019-04-27T05:17:23.159Z,46.60
2019-04-27T05:22:14.594Z,45.10
2019-04-27T05:27:05.912Z,36.00
2019-04-27T05:31:59.453Z,31.00
2019-04-27T05:36:52.957Z,27.80
2019-04-27T05:41:42.180Z,27.60
2019-04-27T05:46:37.102Z,32.30
2019-04-27T05:51:25.152Z,32.50
2019-04-27T05:56:16.569Z,31.80
2019-04-27T06:01:11.663Z,31.60
2019-04-27T06:06:02.224Z,32.40
2019-04-27T06:10:55.260Z,34.50
2019-04-27T06:15:46.681Z,34.80
2019-04-27T06:20:56.060Z,33.80
2019-04-27T06:25:31.709Z,34.30
2019-04-27T06:30:25.334Z,33.20
2019-04-27T06:35:18.578Z,31.90
2019-04-27T06:40:10.304Z,30.90
2019-04-27T06:49:55.461Z,29.60
2019-04-27T06:54:48.440Z,29.60
2019-04-27T06:59:42.670Z,27.50
2019-04-27T07:04:39.193Z,27.10
2019-04-27T07:09:30.021Z,26.80
2019-04-27T07:14:23.639Z,25.70
2019-04-27T07:19:15.127Z,24.10
2019-04-27T07:24:09.041Z,23.90
2019-04-27T07:29:04.558Z,22.70
2019-04-27T07:33:56.061Z,20.00
2019-04-27T07:38:49.047Z,20.70
2019-04-27T07:43:45.552Z,20.30
2019-04-27T07:48:36.983Z,21.30
2019-04-27T07:58:22.602Z,21.30
2019-04-27T08:03:19.488Z,20.30
2019-04-27T08:08:09.446Z,19.10
2019-04-27T08:13:00.725Z,19.10
2019-04-27T08:17:52.162Z,17.70
2019-04-27T08:22:43.592Z,18.60
2019-04-27T08:27:37.129Z,18.90
2019-04-27T08:32:29.760Z,18.70
2019-04-27T08:37:19.928Z,19.70
2019-04-27T08:42:11.348Z,19.80
2019-04-27T08:47:02.693Z,20.30
2019-04-27T08:52:02.090Z,20.10
2019-04-27T08:56:45.551Z,21.10
2019-04-27T09:01:36.869Z,21.40
2019-04-27T09:06:31.492Z,24.40
2019-04-27T09:11:21.138Z,24.40
2019-04-27T09:16:11.610Z,24.50
2019-04-27T09:21:04.580Z,23.50
2019-04-27T09:25:55.979Z,21.70
2019-04-27T09:30:47.446Z,21.20
2019-04-27T09:35:38.781Z,19.90
2019-04-27T09:40:30.211Z,19.10
2019-04-27T09:45:21.484Z,18.90
2019-04-27T09:50:12.964Z,18.30
2019-04-27T09:55:08.278Z,18.90
2019-04-27T09:59:58.264Z,20.30
2019-04-27T10:04:49.281Z,19.00
2019-04-27T10:09:40.724Z,17.90
2019-04-27T10:14:32.150Z,20.10
2019-04-27T10:19:33.408Z,19.40
2019-04-27T10:24:16.113Z,18.90
2019-04-27T10:29:06.723Z,18.90
2019-04-27T10:33:58.050Z,18.30
2019-04-27T10:38:51.221Z,19.20
2019-04-27T10:43:42.610Z,18.20
2019-04-27T10:48:34.127Z,18.30
2019-04-27T10:53:27.292Z,17.00
2019-04-27T10:58:16.840Z,18.30
2019-04-27T11:03:08.142Z,17.90
2019-04-27T11:08:01.722Z,18.70
2019-04-27T11:12:56.055Z,16.50
2019-04-27T11:17:48.156Z,16.80
2019-04-27T11:22:42.777Z,16.30
2019-04-27T11:27:34.338Z,16.00
2019-04-27T11:32:25.759Z,16.00
2019-04-27T11:37:17.074Z,14.70
2019-04-27T11:42:08.344Z,15.90
2019-04-27T11:47:05.817Z,15.10
2019-04-27T11:51:57.178Z,15.80
2019-04-27T11:56:47.711Z,16.90
2019-04-27T12:01:38.391Z,17.10
2019-04-27T12:06:29.863Z,17.50
2019-04-27T12:11:21.346Z,17.90
2019-04-27T12:16:12.689Z,17.90
2019-04-27T12:21:03.932Z,17.40
2019-04-27T12:25:56.782Z,15.80
2019-04-27T12:30:46.909Z,16.00
2019-04-27T12:35:38.172Z,16.00
2019-04-27T12:40:29.529Z,17.70
2019-04-27T12:45:21.045Z,16.70
2019-04-27T12:50:12.414Z,18.90
2019-04-27T12:55:03.723Z,16.70
2019-04-27T12:59:56.958Z,14.30
2019-04-27T13:04:47.336Z,16.50
2019-04-27T13:09:37.928Z,15.80
2019-04-27T13:14:29.287Z,16.30
2019-04-27T13:19:20.652Z,15.20
2019-04-27T13:24:12.056Z,15.20
2019-04-27T13:29:03.470Z,15.40
2019-04-27T13:33:56.260Z,15.20
2019-04-27T13:38:47.167Z,14.70
2019-04-27T13:43:37.629Z,13.90
2019-04-27T13:48:29.075Z,14.50
2019-04-27T13:53:20.472Z,15.10
2019-04-27T13:58:11.725Z,14.30
2019-04-27T14:03:04.945Z,14.30
2019-04-27T14:07:54.596Z,15.30
2019-04-27T14:17:39.411Z,16.70
2019-04-27T14:22:31.984Z,17.60
2019-04-27T14:27:20.263Z,21.50
2019-04-27T14:32:11.576Z,23.30
2019-04-27T14:37:02.910Z,28.70
2019-04-27T14:41:54.315Z,29.90
2019-04-27T14:46:45.714Z,39.60
2019-04-27T14:51:40.586Z,48.80
2019-04-27T14:56:28.718Z,49.90
2019-04-27T15:01:21.029Z,49.10
2019-04-27T15:06:11.374Z,44.50
2019-04-27T15:11:19.142Z,46.90
2019-04-27T15:15:54.106Z,41.20
2019-04-27T15:20:47.096Z,46.20
2019-04-27T15:25:47.463Z,39.80
2019-04-27T15:30:28.305Z,39.80
2019-04-27T15:35:22.035Z,38.90
2019-04-27T15:40:13.225Z,40.70
2019-04-27T15:45:02.556Z,28.20
2019-04-27T15:49:55.250Z,29.90
2019-04-27T15:54:45.240Z,29.10
2019-04-27T15:59:41.184Z,32.70
2019-04-27T16:04:28.013Z,34.20
2019-04-27T16:09:25.906Z,32.70
2019-04-27T16:14:10.782Z,30.70
2019-04-27T16:19:11.552Z,28.60
2019-04-27T16:23:53.547Z,27.80
2019-04-27T16:28:53.784Z,27.30
2019-04-27T16:33:36.259Z,25.90
2019-04-27T16:38:35.088Z,25.50
2019-04-27T16:43:19.233Z,26.30
2019-04-27T16:48:10.476Z,23.80
2019-04-27T16:53:01.830Z,24.30
2019-04-27T16:57:54.155Z,23.70
2019-04-27T17:02:44.795Z,20.90
2019-04-27T17:09:46.466Z,22.30
2019-04-27T17:12:43.485Z,21.30
2019-04-27T17:17:20.220Z,22.10
2019-04-27T17:22:16.304Z,19.50
2019-04-27T17:27:01.575Z,19.80
2019-04-27T17:32:00.128Z,20.00
2019-04-27T17:36:56.824Z,21.80
2019-04-27T17:41:35.860Z,21.40
2019-04-27T17:46:28.707Z,22.70
2019-04-27T17:51:18.502Z,25.50
2019-04-27T17:56:09.946Z,29.40
2019-04-27T18:01:01.370Z,32.60
2019-04-27T18:05:52.752Z,38.30
2019-04-27T18:10:44.067Z,41.00
2019-04-27T18:15:35.533Z,42.70
2019-04-27T18:20:29.093Z,43.20
2019-04-27T18:25:19.145Z,41.60
2019-04-27T18:30:11.069Z,41.90
2019-04-27T18:35:01.074Z,43.20
2019-04-27T18:39:55.483Z,42.60
2019-04-27T18:44:46.212Z,43.20
2019-04-27T18:49:39.179Z,45.00
2019-04-27T18:54:38.013Z,47.70
2019-04-27T18:59:20.399Z,48.50
2019-04-27T19:04:11.737Z,51.80
2019-04-27T19:09:03.153Z,53.00
2019-04-27T19:13:54.585Z,58.20
2019-04-27T19:18:48.324Z,60.90
2019-04-27T19:23:40.659Z,55.10
2019-04-27T19:28:31.358Z,55.10
2019-04-27T19:33:22.820Z,59.40
2019-04-27T19:38:14.243Z,58.50
2019-04-27T19:43:05.643Z,58.80
2019-04-27T19:47:56.960Z,58.80
2019-04-27T19:52:50.767Z,58.70
2019-04-27T19:57:42.492Z,61.20
2019-04-27T20:02:31.254Z,62.20
2019-04-27T20:07:22.572Z,62.70
2019-04-27T20:12:14.224Z,61.80
2019-04-27T20:17:06.212Z,60.00
2019-04-27T20:21:56.836Z,60.20
2019-04-27T20:26:48.126Z,59.50
2019-04-27T20:31:41.511Z,59.70
2019-04-27T20:36:31.819Z,56.70
2019-04-27T20:41:22.342Z,56.00
2019-04-27T20:46:13.674Z,53.30
2019-04-27T20:51:05.114Z,53.30
2019-04-27T20:55:56.502Z,55.10
2019-04-27T21:00:47.894Z,55.50
2019-04-27T21:05:41.256Z,53.30
2019-04-27T21:10:32.884Z,53.20
2019-04-27T21:15:22.108Z,54.50
2019-04-27T21:20:13.705Z,56.00
2019-04-27T21:25:04.773Z,53.30
2019-04-27T21:29:56.312Z,51.40
2019-04-27T21:34:47.696Z,52.60
2019-04-27T21:39:39.066Z,51.80
2019-04-27T21:44:32.352Z,53.00
2019-04-27T21:49:21.897Z,53.10
2019-04-27T21:54:13.223Z,54.60
2019-04-27T21:59:04.595Z,54.10
2019-04-27T22:03:55.825Z,53.10
2019-04-27T22:08:47.340Z,53.50
2019-04-27T22:13:41.378Z,54.30
2019-04-27T22:18:31.858Z,56.50
2019-04-27T22:23:23.410Z,54.00
2019-04-27T22:28:12.818Z,53.80
2019-04-27T22:33:04.209Z,53.10
2019-04-27T22:37:55.616Z,53.70
2019-04-27T22:42:46.952Z,54.20
2019-04-27T22:47:38.396Z,53.40
2019-04-27T22:52:31.194Z,53.50
2019-04-27T22:57:23.661Z,52.80
2019-04-27T23:02:12.599Z,54.40
2019-04-27T23:07:04.004Z,54.40
2019-04-27T23:11:56.172Z,54.80
2019-04-27T23:16:46.856Z,54.00
2019-04-27T23:21:38.115Z,53.80
2019-04-27T23:26:31.585Z,53.40
2019-04-27T23:31:21.462Z,53.00
2019-04-27T23:36:12.383Z,53.00
2019-04-27T23:41:03.681Z,52.40
2019-04-27T23:45:55.225Z,55.00
2019-04-27T23:50:46.491Z,55.10
2019-04-27T23:55:37.858Z,57.80
